createdAt,value
2016-09-23T00:00:49.945Z,0
2016-09-23T00:01:49.964Z,0
2016-09-23T00:02:49.984Z,0
2016-09-23T00:03:49.962Z,0
2016-09-23T00:04:49.984Z,0
2016-09-23T00:05:49.990Z,0
2016-09-23T00:06:50.001Z,0
2016-09-23T00:07:50.047Z,0
2016-09-23T00:08:49.981Z,0
2016-09-23T00:09:49.961Z,0
2016-09-23T00:10:49.977Z,0
2016-09-23T00:11:49.966Z,0
2016-09-23T00:12:50.012Z,0
2016-09-23T00:13:50.014Z,0
2016-09-23T00:14:49.995Z,0
2016-09-23T00:15:49.991Z,0
2016-09-23T00:16:50.015Z,0
2016-09-23T00:17:50.022Z,0
2016-09-23T00:18:50.012Z,0
2016-09-23T00:19:50.371Z,0
2016-09-23T00:20:50.002Z,0
2016-09-23T00:21:49.994Z,0
2016-09-23T00:22:49.994Z,0
2016-09-23T00:23:50.030Z,0
2016-09-23T00:24:49.994Z,0
2016-09-23T00:25:50.008Z,0
2016-09-23T00:26:50.012Z,0
2016-09-23T00:27:49.970Z,0
2016-09-23T00:28:50.006Z,0
2016-09-23T00:29:50.022Z,0
2016-09-23T00:30:50.006Z,0
2016-09-23T00:31:49.997Z,0
2016-09-23T00:32:49.991Z,0
2016-09-23T00:33:49.997Z,0
2016-09-23T00:34:49.989Z,0
2016-09-23T00:35:50.042Z,0
2016-09-23T00:36:50.017Z,0
2016-09-23T00:37:50.098Z,0
2016-09-23T00:38:50.034Z,0
2016-09-23T00:39:50.076Z,0
2016-09-23T00:40:50.029Z,0
2016-09-23T00:41:50.018Z,0
2016-09-23T00:42:50.006Z,0
2016-09-23T00:43:50.003Z,0
2016-09-23T00:44:50.046Z,0
2016-09-23T00:45:50.041Z,0
2016-09-23T00:46:50.010Z,0
2016-09-23T00:47:50.003Z,0
2016-09-23T00:48:50.050Z,0
2016-09-23T00:49:50.026Z,0
2016-09-23T00:50:50.002Z,0
2016-09-23T00:51:50.041Z,0
2016-09-23T00:52:50.037Z,0
2016-09-23T00:53:50.041Z,0
2016-09-23T00:54:50.031Z,0
2016-09-23T00:55:50.054Z,0
2016-09-23T00:56:50.245Z,0
2016-09-23T00:57:50.048Z,0
2016-09-23T00:58:50.099Z,0
2016-09-23T00:59:50.006Z,0
2016-09-23T01:00:50.082Z,0
2016-09-23T01:01:50.105Z,0
2016-09-23T01:02:50.095Z,0
2016-09-23T01:03:50.095Z,0
2016-09-23T01:04:50.071Z,0
2016-09-23T01:05:50.060Z,0
2016-09-23T01:06:50.095Z,0
2016-09-23T01:07:50.037Z,0
2016-09-23T01:08:50.042Z,0
2016-09-23T01:09:50.037Z,0
2016-09-23T01:10:50.020Z,0
2016-09-23T01:11:50.009Z,0
2016-09-23T01:12:50.022Z,0
2016-09-23T01:13:50.059Z,0
2016-09-23T01:14:50.030Z,0
2016-09-23T01:15:50.056Z,0
2016-09-23T01:16:50.049Z,0
2016-09-23T01:17:50.032Z,0
2016-09-23T01:18:50.082Z,0
2016-09-23T01:19:50.014Z,0
2016-09-23T01:20:50.073Z,0
2016-09-23T01:21:50.037Z,0
2016-09-23T01:22:50.092Z,0
2016-09-23T01:23:50.036Z,0
2016-09-23T01:24:50.070Z,0
2016-09-23T01:25:50.055Z,0
2016-09-23T01:26:50.047Z,0
2016-09-23T01:27:50.038Z,0
2016-09-23T01:28:50.082Z,0
2016-09-23T01:29:50.035Z,0
2016-09-23T01:30:50.080Z,0
2016-09-23T01:31:50.066Z,0
2016-09-23T01:32:50.075Z,0
2016-09-23T01:33:50.046Z,0
2016-09-23T01:34:50.067Z,0
2016-09-23T01:35:50.028Z,0
2016-09-23T01:36:50.053Z,0
2016-09-23T01:37:50.045Z,0
2016-09-23T01:38:50.050Z,0
2016-09-23T01:39:50.075Z,0
2016-09-23T01:40:50.033Z,0
2016-09-23T01:41:50.042Z,0
2016-09-23T01:42:50.056Z,0
2016-09-23T01:43:50.027Z,0
2016-09-23T01:44:50.107Z,0
2016-09-23T01:45:50.067Z,0
2016-09-23T01:46:50.035Z,0
2016-09-23T01:47:50.066Z,0
2016-09-23T01:48:50.037Z,0
2016-09-23T01:49:50.050Z,0
2016-09-23T01:50:50.060Z,0
2016-09-23T01:51:50.057Z,0
2016-09-23T01:52:50.047Z,0
2016-09-23T01:53:50.041Z,0
2016-09-23T01:54:50.053Z,0
2016-09-23T01:55:50.051Z,0
2016-09-23T01:56:50.050Z,0
2016-09-23T01:57:50.063Z,0
2016-09-23T01:58:50.052Z,0
2016-09-23T01:59:50.073Z,0
2016-09-23T02:00:50.108Z,0
2016-09-23T02:01:50.082Z,0
2016-09-23T02:02:50.080Z,0
2016-09-23T02:03:50.054Z,0
2016-09-23T02:04:50.172Z,0
2016-09-23T02:05:50.081Z,0
2016-09-23T02:06:50.094Z,0
2016-09-23T02:07:50.086Z,0
2016-09-23T02:08:50.076Z,0
2016-09-23T02:09:50.089Z,0
2016-09-23T02:10:50.103Z,0
2016-09-23T02:11:50.069Z,0
2016-09-23T02:12:50.079Z,0
2016-09-23T02:13:50.112Z,0
2016-09-23T02:14:50.076Z,0
2016-09-23T02:15:50.092Z,0
2016-09-23T02:16:50.071Z,0
2016-09-23T02:17:50.102Z,0
2016-09-23T02:18:50.056Z,0
2016-09-23T02:19:50.119Z,0
2016-09-23T02:20:50.098Z,0
2016-09-23T02:21:50.073Z,0
2016-09-23T02:22:50.067Z,0
2016-09-23T02:23:50.060Z,0
2016-09-23T02:24:50.101Z,0
2016-09-23T02:25:50.085Z,0
2016-09-23T02:26:50.078Z,0
2016-09-23T02:27:50.102Z,0
2016-09-23T02:28:50.065Z,0
2016-09-23T02:29:50.118Z,0
2016-09-23T02:30:50.088Z,0
2016-09-23T02:31:50.087Z,0
2016-09-23T02:32:50.067Z,0
2016-09-23T02:33:50.101Z,0
2016-09-23T02:34:50.130Z,0
2016-09-23T02:35:50.094Z,0
2016-09-23T02:36:50.111Z,0
2016-09-23T02:37:50.095Z,0
2016-09-23T02:38:50.121Z,0
2016-09-23T02:39:50.116Z,0
2016-09-23T02:40:50.133Z,0
2016-09-23T02:41:50.147Z,0
2016-09-23T02:42:50.117Z,0
2016-09-23T02:43:50.115Z,0
2016-09-23T02:44:50.133Z,0
2016-09-23T02:45:50.110Z,0
2016-09-23T02:46:50.116Z,0
2016-09-23T02:47:50.111Z,0
2016-09-23T02:48:50.156Z,0
2016-09-23T02:49:50.129Z,0
2016-09-23T02:50:50.157Z,0
2016-09-23T02:51:50.104Z,0
2016-09-23T02:52:50.082Z,0
2016-09-23T02:53:50.148Z,0
2016-09-23T02:54:50.132Z,0
2016-09-23T02:55:50.201Z,0
2016-09-23T02:56:50.107Z,0
2016-09-23T02:57:50.126Z,0
2016-09-23T02:58:50.101Z,0
2016-09-23T02:59:50.130Z,0
2016-09-23T03:00:50.119Z,0
2016-09-23T03:01:50.100Z,0
2016-09-23T03:02:50.117Z,0
2016-09-23T03:03:50.100Z,0
2016-09-23T03:04:50.108Z,0
2016-09-23T03:05:50.173Z,0
2016-09-23T03:06:50.142Z,0
2016-09-23T03:07:50.133Z,0
2016-09-23T03:08:50.133Z,0
2016-09-23T03:09:50.107Z,0
2016-09-23T03:10:50.115Z,0
2016-09-23T03:11:50.136Z,0
2016-09-23T03:12:50.131Z,0
2016-09-23T03:13:50.103Z,0
2016-09-23T03:14:50.111Z,0
2016-09-23T03:15:50.139Z,0
2016-09-23T03:16:50.129Z,0
2016-09-23T03:17:50.129Z,0
2016-09-23T03:18:50.138Z,0
2016-09-23T03:19:50.099Z,0
2016-09-23T03:20:50.153Z,0
2016-09-23T03:21:50.135Z,0
2016-09-23T03:22:50.141Z,0
2016-09-23T03:23:50.167Z,0
2016-09-23T03:24:50.142Z,0
2016-09-23T03:25:50.110Z,0
2016-09-23T03:26:50.136Z,0
2016-09-23T03:27:50.127Z,0
2016-09-23T03:28:50.114Z,0
2016-09-23T03:29:50.136Z,0
2016-09-23T03:30:50.120Z,0
2016-09-23T03:31:50.135Z,0
2016-09-23T03:32:50.169Z,0
2016-09-23T03:33:50.120Z,0
2016-09-23T03:34:50.139Z,0
2016-09-23T03:35:50.133Z,0
2016-09-23T03:36:50.162Z,0
2016-09-23T03:37:50.143Z,0
2016-09-23T03:38:50.131Z,0
2016-09-23T03:39:50.140Z,0
2016-09-23T03:40:50.168Z,0
2016-09-23T03:41:50.126Z,0
2016-09-23T03:42:50.152Z,0
2016-09-23T03:43:50.137Z,0
2016-09-23T03:44:50.174Z,0
2016-09-23T03:45:50.151Z,0
2016-09-23T03:46:50.161Z,0
2016-09-23T03:47:50.182Z,0
2016-09-23T03:48:50.155Z,0
2016-09-23T03:49:50.146Z,0
2016-09-23T03:50:50.144Z,0
2016-09-23T03:51:50.164Z,0
2016-09-23T03:52:50.172Z,0
2016-09-23T03:53:50.164Z,0
2016-09-23T03:54:50.173Z,0
2016-09-23T03:55:50.155Z,0
2016-09-23T03:56:50.144Z,0
2016-09-23T03:57:50.187Z,0
2016-09-23T03:58:50.171Z,0
2016-09-23T03:59:50.177Z,0
2016-09-23T04:00:50.129Z,0
2016-09-23T04:01:50.137Z,0
2016-09-23T04:02:50.160Z,0
2016-09-23T04:03:50.177Z,0
2016-09-23T04:04:50.187Z,0
2016-09-23T04:05:50.181Z,0
2016-09-23T04:06:50.175Z,0
2016-09-23T04:07:50.191Z,0
2016-09-23T04:08:50.184Z,0
2016-09-23T04:09:50.184Z,0
2016-09-23T04:10:50.165Z,0
2016-09-23T04:11:50.174Z,0
2016-09-23T04:12:50.236Z,0
2016-09-23T04:13:50.201Z,0
2016-09-23T04:14:50.173Z,0
2016-09-23T04:15:50.161Z,0
2016-09-23T04:16:50.184Z,0
2016-09-23T04:17:50.201Z,0
2016-09-23T04:18:50.194Z,0
2016-09-23T04:19:50.201Z,0
2016-09-23T04:20:50.199Z,0
2016-09-23T04:21:50.213Z,0
2016-09-23T04:22:50.173Z,0
2016-09-23T04:23:50.198Z,0
2016-09-23T04:24:50.160Z,0
2016-09-23T04:25:50.162Z,0
2016-09-23T04:26:50.201Z,0
2016-09-23T04:27:50.221Z,0
2016-09-23T04:28:50.228Z,0
2016-09-23T04:29:50.290Z,0
2016-09-23T04:30:50.256Z,0
2016-09-23T04:31:50.275Z,0
2016-09-23T04:32:50.255Z,0
2016-09-23T04:33:50.280Z,0
2016-09-23T04:34:50.271Z,0
2016-09-23T04:35:50.258Z,0
2016-09-23T04:36:50.266Z,0
2016-09-23T04:37:50.258Z,0
2016-09-23T04:38:50.331Z,0
2016-09-23T04:39:50.214Z,0
2016-09-23T04:40:50.256Z,0
2016-09-23T04:41:50.238Z,0
2016-09-23T04:42:50.245Z,0
2016-09-23T04:43:50.305Z,0
2016-09-23T04:44:50.332Z,0
2016-09-23T04:45:50.236Z,0
2016-09-23T04:46:50.315Z,4
2016-09-23T04:47:50.314Z,4
2016-09-23T04:48:50.270Z,4
2016-09-23T04:49:50.255Z,0
2016-09-23T04:50:50.279Z,4
2016-09-23T04:51:50.264Z,4
2016-09-23T04:52:50.280Z,4
2016-09-23T04:53:50.252Z,8
2016-09-23T04:54:50.216Z,8
2016-09-23T04:55:50.281Z,12
2016-09-23T04:56:50.325Z,12
2016-09-23T04:57:50.276Z,16
2016-09-23T04:58:50.299Z,16
2016-09-23T04:59:50.217Z,20
2016-09-23T05:00:50.303Z,24
2016-09-23T05:01:50.335Z,28
2016-09-23T05:02:50.323Z,32
2016-09-23T05:03:50.332Z,40
2016-09-23T05:04:50.295Z,48
2016-09-23T05:05:50.265Z,52
2016-09-23T05:06:50.283Z,60
2016-09-23T05:07:50.293Z,72
2016-09-23T05:08:50.312Z,80
2016-09-23T05:09:50.335Z,88
2016-09-23T05:10:50.305Z,96
2016-09-23T05:11:50.267Z,108
2016-09-23T05:12:50.300Z,124
2016-09-23T05:13:50.318Z,140
2016-09-23T05:14:50.299Z,160
2016-09-23T05:15:50.273Z,176
2016-09-23T05:16:50.283Z,196
2016-09-23T05:17:50.314Z,216
2016-09-23T05:18:51.071Z,240
2016-09-23T05:19:50.349Z,264
2016-09-23T05:20:50.337Z,292
2016-09-23T05:21:50.251Z,324
2016-09-23T05:22:50.287Z,356
2016-09-23T05:23:50.369Z,384
2016-09-23T05:24:50.290Z,416
2016-09-23T05:25:50.313Z,448
2016-09-23T05:26:50.290Z,484
2016-09-23T05:27:50.280Z,516
2016-09-23T05:28:50.337Z,540
2016-09-23T05:29:50.350Z,552
2016-09-23T05:30:50.260Z,564
2016-09-23T05:31:50.332Z,572
2016-09-23T05:32:50.290Z,572
2016-09-23T05:33:50.281Z,580
2016-09-23T05:34:50.248Z,588
2016-09-23T05:35:50.264Z,620
2016-09-23T05:36:50.294Z,660
2016-09-23T05:37:50.300Z,700
2016-09-23T05:38:51.210Z,748
2016-09-23T05:39:50.249Z,804
2016-09-23T05:40:50.283Z,880
2016-09-23T05:41:50.236Z,968
2016-09-23T05:42:50.274Z,1080
2016-09-23T05:43:50.271Z,1176
2016-09-23T05:44:50.253Z,1248
2016-09-23T05:45:50.264Z,1332
2016-09-23T05:46:50.265Z,1440
2016-09-23T05:47:50.266Z,1536
2016-09-23T05:48:50.287Z,1596
2016-09-23T05:49:50.262Z,1640
2016-09-23T05:50:50.313Z,1672
2016-09-23T05:51:50.249Z,1692
2016-09-23T05:52:50.238Z,1736
2016-09-23T05:53:50.229Z,1816
2016-09-23T05:54:50.236Z,1940
2016-09-23T05:55:50.245Z,2092
2016-09-23T05:56:50.258Z,2276
2016-09-23T05:57:50.256Z,2480
2016-09-23T05:58:50.265Z,2660
2016-09-23T05:59:50.289Z,2800
2016-09-23T06:00:50.269Z,2924
2016-09-23T06:01:50.246Z,3056
2016-09-23T06:02:50.305Z,3208
2016-09-23T06:03:50.355Z,3352
2016-09-23T06:04:50.303Z,3420
2016-09-23T06:05:50.269Z,3404
2016-09-23T06:06:50.287Z,3296
2016-09-23T06:07:50.268Z,3160
2016-09-23T06:08:50.314Z,3060
2016-09-23T06:09:50.294Z,3024
2016-09-23T06:10:50.263Z,3016
2016-09-23T06:11:50.297Z,2988
2016-09-23T06:12:50.320Z,2932
2016-09-23T06:13:50.313Z,2908
2016-09-23T06:14:50.279Z,2904
2016-09-23T06:15:50.301Z,2912
2016-09-23T06:16:50.259Z,2860
2016-09-23T06:17:50.262Z,2788
2016-09-23T06:18:50.286Z,2728
2016-09-23T06:19:50.272Z,2716
2016-09-23T06:20:50.272Z,2732
2016-09-23T06:21:50.272Z,2796
2016-09-23T06:22:50.278Z,2944
2016-09-23T06:23:50.269Z,3172
2016-09-23T06:24:50.301Z,3296
2016-09-23T06:25:50.289Z,3252
2016-09-23T06:26:50.281Z,3180
2016-09-23T06:27:50.277Z,3180
2016-09-23T06:28:50.265Z,3252
2016-09-23T06:29:50.298Z,3380
2016-09-23T06:30:50.294Z,3536
2016-09-23T06:31:50.298Z,3700
2016-09-23T06:32:50.333Z,3916
2016-09-23T06:33:51.053Z,4076
2016-09-23T06:34:50.303Z,4120
2016-09-23T06:35:50.285Z,4040
2016-09-23T06:36:50.298Z,3880
2016-09-23T06:37:50.289Z,3680
2016-09-23T06:38:50.305Z,3540
2016-09-23T06:39:50.317Z,3504
2016-09-23T06:40:50.329Z,3588
2016-09-23T06:41:50.321Z,3752
2016-09-23T06:42:50.321Z,3964
2016-09-23T06:43:50.318Z,4216
2016-09-23T06:44:50.312Z,4432
2016-09-23T06:45:50.311Z,4656
2016-09-23T06:46:50.314Z,4916
2016-09-23T06:47:50.318Z,5116
2016-09-23T06:48:50.292Z,5256
2016-09-23T06:49:50.304Z,5340
2016-09-23T06:50:50.345Z,5344
2016-09-23T06:51:50.328Z,5348
2016-09-23T06:52:50.308Z,5368
2016-09-23T06:53:50.388Z,5404
2016-09-23T06:54:50.375Z,5452
2016-09-23T06:55:51.200Z,5508
2016-09-23T06:56:50.326Z,5560
2016-09-23T06:57:50.352Z,5608
2016-09-23T06:58:50.323Z,5652
2016-09-23T06:59:50.339Z,5716
2016-09-23T07:00:50.333Z,5808
2016-09-23T07:01:50.288Z,5908
2016-09-23T07:02:50.330Z,5996
2016-09-23T07:03:51.233Z,6060
2016-09-23T07:04:50.363Z,6112
2016-09-23T07:05:50.345Z,6160
2016-09-23T07:06:50.344Z,6212
2016-09-23T07:07:50.317Z,6260
2016-09-23T07:08:50.328Z,6304
2016-09-23T07:09:50.349Z,6328
2016-09-23T07:10:50.324Z,6348
2016-09-23T07:11:50.346Z,6364
2016-09-23T07:12:50.321Z,6372
2016-09-23T07:13:50.327Z,6396
2016-09-23T07:14:50.333Z,6420
2016-09-23T07:15:50.424Z,6440
2016-09-23T07:16:50.354Z,6468
2016-09-23T07:17:50.330Z,6496
2016-09-23T07:18:50.356Z,6552
2016-09-23T07:19:50.387Z,6612
2016-09-23T07:20:50.352Z,6708
2016-09-23T07:21:50.354Z,6788
2016-09-23T07:22:50.347Z,6840
2016-09-23T07:23:50.378Z,6856
2016-09-23T07:24:50.361Z,6848
2016-09-23T07:25:50.344Z,6828
2016-09-23T07:26:50.393Z,6812
2016-09-23T07:27:50.403Z,6844
2016-09-23T07:28:59.767Z,6904
2016-09-23T07:30:01.063Z,7028
2016-09-23T07:31:00.663Z,7108
2016-09-23T07:31:50.384Z,7108
2016-09-23T07:32:50.349Z,7048
2016-09-23T07:34:00.637Z,7000
2016-09-23T07:35:00.182Z,7016
2016-09-23T07:35:50.343Z,7072
2016-09-23T07:36:50.362Z,7176
2016-09-23T07:37:50.374Z,7320
2016-09-23T07:38:50.367Z,7592
2016-09-23T07:39:50.375Z,7856
2016-09-23T07:40:50.385Z,8040
2016-09-23T07:41:50.377Z,8292
2016-09-23T07:42:50.370Z,8616
2016-09-23T07:43:50.361Z,8860
2016-09-23T07:44:50.366Z,9088
2016-09-23T07:45:50.428Z,9144
2016-09-23T07:46:50.515Z,9096
2016-09-23T07:47:50.380Z,9016
2016-09-23T07:48:50.522Z,9060
2016-09-23T07:49:50.439Z,9528
2016-09-23T07:51:00.976Z,9684
2016-09-23T07:52:00.529Z,9308
2016-09-23T07:53:00.323Z,8748
2016-09-23T07:54:00.636Z,8296
2016-09-23T07:55:00.275Z,8064
2016-09-23T07:56:00.366Z,7976
2016-09-23T07:57:01.175Z,7844
2016-09-23T07:57:50.395Z,7808
2016-09-23T07:58:50.371Z,7704
2016-09-23T08:00:27.218Z,8228
2016-09-23T08:00:50.401Z,8424
2016-09-23T08:01:50.462Z,8932
2016-09-23T08:02:50.412Z,9232
2016-09-23T08:03:50.388Z,9404
2016-09-23T08:04:50.383Z,9816
2016-09-23T08:05:50.625Z,10272
2016-09-23T08:06:50.391Z,10800
2016-09-23T08:07:50.392Z,11772
2016-09-23T08:08:51.106Z,13176
2016-09-23T08:09:50.373Z,14412
2016-09-23T08:10:50.361Z,14424
2016-09-23T08:11:50.389Z,13924
2016-09-23T08:12:50.422Z,13928
2016-09-23T08:13:50.402Z,14092
2016-09-23T08:14:50.397Z,13932
2016-09-23T08:15:50.416Z,13744
2016-09-23T08:16:50.386Z,13828
2016-09-23T08:17:50.431Z,14008
2016-09-23T08:18:50.376Z,14476
2016-09-23T08:19:50.413Z,15308
2016-09-23T08:20:50.402Z,15232
2016-09-23T08:21:50.398Z,14764
2016-09-23T08:22:50.427Z,14276
2016-09-23T08:23:50.431Z,13908
2016-09-23T08:24:50.426Z,13724
2016-09-23T08:25:50.767Z,14120
2016-09-23T08:26:50.453Z,14788
2016-09-23T08:27:50.444Z,15432
2016-09-23T08:28:50.493Z,15648
2016-09-23T08:29:50.461Z,15612
2016-09-23T08:30:51.010Z,15032
2016-09-23T08:31:50.488Z,14216
2016-09-23T08:32:51.359Z,12980
2016-09-23T08:33:50.491Z,11212
2016-09-23T08:34:50.407Z,9660
2016-09-23T08:35:50.710Z,8408
2016-09-23T08:36:50.468Z,7328
2016-09-23T08:37:50.500Z,6512
2016-09-23T08:38:51.076Z,6132
2016-09-23T08:39:50.468Z,5856
2016-09-23T08:40:50.420Z,5732
2016-09-23T08:41:50.475Z,5492
2016-09-23T08:42:50.479Z,5372
2016-09-23T08:43:50.431Z,5400
2016-09-23T08:44:50.443Z,5484
2016-09-23T08:45:50.440Z,5548
2016-09-23T08:46:50.489Z,5512
2016-09-23T08:47:50.468Z,5456
2016-09-23T08:48:50.476Z,5412
2016-09-23T08:49:50.463Z,5420
2016-09-23T08:50:50.469Z,5480
2016-09-23T08:51:50.510Z,5596
2016-09-23T08:52:50.574Z,5740
2016-09-23T08:53:50.451Z,5884
2016-09-23T08:54:50.487Z,6036
2016-09-23T08:55:50.415Z,6200
2016-09-23T08:56:50.413Z,6360
2016-09-23T08:57:50.440Z,6464
2016-09-23T08:58:50.543Z,6492
2016-09-23T08:59:50.516Z,6588
2016-09-23T09:00:50.440Z,6760
2016-09-23T09:01:51.449Z,6956
2016-09-23T09:02:50.465Z,7128
2016-09-23T09:03:50.496Z,7268
2016-09-23T09:04:50.493Z,7320
2016-09-23T09:05:50.485Z,7332
2016-09-23T09:06:50.449Z,7356
2016-09-23T09:07:50.515Z,7404
2016-09-23T09:08:50.469Z,7356
2016-09-23T09:09:50.503Z,7264
2016-09-23T09:10:50.464Z,7344
2016-09-23T09:11:50.459Z,7632
2016-09-23T09:12:50.412Z,7972
2016-09-23T09:13:50.484Z,8288
2016-09-23T09:14:50.458Z,8604
2016-09-23T09:15:50.417Z,8904
2016-09-23T09:16:50.453Z,9112
2016-09-23T09:17:50.527Z,9260
2016-09-23T09:18:50.510Z,9460
2016-09-23T09:19:50.441Z,9772
2016-09-23T09:20:50.456Z,10152
2016-09-23T09:21:50.449Z,10524
2016-09-23T09:22:50.451Z,10900
2016-09-23T09:23:50.515Z,11348
2016-09-23T09:24:50.462Z,11892
2016-09-23T09:25:50.507Z,12416
2016-09-23T09:26:50.494Z,12856
2016-09-23T09:27:50.474Z,13308
2016-09-23T09:28:50.527Z,13384
2016-09-23T09:29:50.446Z,13148
2016-09-23T09:30:50.458Z,12932
2016-09-23T09:31:50.471Z,12952
2016-09-23T09:32:50.462Z,13048
2016-09-23T09:33:50.462Z,13084
2016-09-23T09:34:50.455Z,13000
2016-09-23T09:35:50.497Z,12936
2016-09-23T09:36:50.459Z,12948
2016-09-23T09:37:50.451Z,13064
2016-09-23T09:38:50.501Z,13240
2016-09-23T09:39:50.548Z,13420
2016-09-23T09:40:50.479Z,13576
2016-09-23T09:41:50.436Z,13804
2016-09-23T09:42:50.473Z,14116
2016-09-23T09:43:50.468Z,14400
2016-09-23T09:44:50.511Z,14672
2016-09-23T09:45:50.477Z,14660
2016-09-23T09:46:50.495Z,14680
2016-09-23T09:47:50.466Z,14624
2016-09-23T09:48:50.464Z,14352
2016-09-23T09:49:50.485Z,13828
2016-09-23T09:50:50.491Z,13284
2016-09-23T09:51:50.445Z,12980
2016-09-23T09:52:50.527Z,13224
2016-09-23T09:53:50.571Z,12768
2016-09-23T09:54:50.532Z,11848
2016-09-23T09:55:50.469Z,11768
2016-09-23T09:56:50.472Z,11900
2016-09-23T09:57:50.574Z,12000
2016-09-23T09:58:50.504Z,11832
2016-09-23T09:59:50.556Z,10816
2016-09-23T10:00:50.512Z,9704
2016-09-23T10:01:50.486Z,9136
2016-09-23T10:02:50.536Z,8464
2016-09-23T10:03:50.544Z,8084
2016-09-23T10:04:50.540Z,8348
2016-09-23T10:05:50.523Z,8756
2016-09-23T10:06:50.499Z,8580
2016-09-23T10:07:50.547Z,8288
2016-09-23T10:08:50.522Z,8624
2016-09-23T10:09:50.564Z,8984
2016-09-23T10:10:50.523Z,9892
2016-09-23T10:11:50.534Z,10608
2016-09-23T10:12:50.553Z,11072
2016-09-23T10:13:50.538Z,11360
2016-09-23T10:14:50.527Z,11144
2016-09-23T10:15:50.512Z,10664
2016-09-23T10:16:50.515Z,10372
2016-09-23T10:17:50.544Z,10576
2016-09-23T10:18:50.527Z,10080
2016-09-23T10:19:50.598Z,9488
2016-09-23T10:20:50.517Z,8752
2016-09-23T10:21:50.541Z,7740
2016-09-23T10:22:50.543Z,6652
2016-09-23T10:23:50.504Z,6244
2016-09-23T10:24:50.533Z,6876
2016-09-23T10:25:50.548Z,8672
2016-09-23T10:26:50.540Z,10112
2016-09-23T10:27:50.527Z,10860
2016-09-23T10:28:50.520Z,11424
2016-09-23T10:29:50.537Z,10988
2016-09-23T10:30:50.540Z,9684
2016-09-23T10:31:50.530Z,9272
2016-09-23T10:32:50.514Z,9500
2016-09-23T10:33:50.527Z,9288
2016-09-23T10:34:50.539Z,9000
2016-09-23T10:35:50.552Z,8576
2016-09-23T10:36:50.524Z,7904
2016-09-23T10:37:50.518Z,7708
2016-09-23T10:38:50.543Z,7740
2016-09-23T10:39:50.530Z,7256
2016-09-23T10:40:50.556Z,7140
2016-09-23T10:41:50.629Z,7776
2016-09-23T10:42:50.511Z,8048
2016-09-23T10:43:50.532Z,7220
2016-09-23T10:44:50.521Z,6684
2016-09-23T10:45:50.578Z,6480
2016-09-23T10:46:50.551Z,6488
2016-09-23T10:47:50.578Z,6332
2016-09-23T10:48:50.546Z,6148
2016-09-23T10:49:50.543Z,6176
2016-09-23T10:50:50.506Z,6264
2016-09-23T10:51:50.566Z,6228
2016-09-23T10:52:50.542Z,6316
2016-09-23T10:53:50.553Z,6292
2016-09-23T10:54:50.601Z,6268
2016-09-23T10:55:50.845Z,6216
2016-09-23T10:56:50.552Z,6272
2016-09-23T10:57:50.530Z,6532
2016-09-23T10:58:50.559Z,6660
2016-09-23T10:59:50.546Z,6872
2016-09-23T11:00:50.563Z,7008
2016-09-23T11:01:50.562Z,7288
2016-09-23T11:02:50.579Z,8336
2016-09-23T11:03:50.555Z,9800
2016-09-23T11:04:50.552Z,10184
2016-09-23T11:05:50.587Z,9440
2016-09-23T11:06:50.535Z,8836
2016-09-23T11:07:50.595Z,8540
2016-09-23T11:08:50.572Z,8248
2016-09-23T11:09:50.554Z,8696
2016-09-23T11:10:50.575Z,8516
2016-09-23T11:11:50.595Z,7740
2016-09-23T11:12:50.589Z,7720
2016-09-23T11:13:50.633Z,8272
2016-09-23T11:14:50.883Z,8884
2016-09-23T11:15:50.766Z,8924
2016-09-23T11:16:50.875Z,8188
2016-09-23T11:17:50.592Z,7572
2016-09-23T11:18:50.573Z,7380
2016-09-23T11:19:50.616Z,7616
2016-09-23T11:20:50.568Z,7964
2016-09-23T11:21:50.571Z,8384
2016-09-23T11:22:50.582Z,9400
2016-09-23T11:23:50.587Z,10408
2016-09-23T11:24:50.583Z,10696
2016-09-23T11:25:50.638Z,11128
2016-09-23T11:26:50.573Z,12208
2016-09-23T11:27:50.624Z,11664
2016-09-23T11:28:50.616Z,11696
2016-09-23T11:29:50.592Z,11472
2016-09-23T11:30:50.576Z,10644
2016-09-23T11:31:50.613Z,10064
2016-09-23T11:32:50.615Z,9344
2016-09-23T11:33:50.624Z,8912
2016-09-23T11:34:50.586Z,9280
2016-09-23T11:35:50.606Z,9152
2016-09-23T11:36:50.603Z,8356
2016-09-23T11:37:50.612Z,7236
2016-09-23T11:38:50.683Z,6660
2016-09-23T11:39:50.634Z,6076
2016-09-23T11:40:50.637Z,5792
2016-09-23T11:41:50.644Z,5560
2016-09-23T11:42:50.647Z,5504
2016-09-23T11:43:50.665Z,5352
2016-09-23T11:44:50.687Z,4964
2016-09-23T11:45:50.663Z,4776
2016-09-23T11:46:50.673Z,4752
2016-09-23T11:47:50.669Z,5024
2016-09-23T11:48:50.611Z,5004
2016-09-23T11:49:50.650Z,5116
2016-09-23T11:50:50.621Z,6140
2016-09-23T11:51:50.660Z,8004
2016-09-23T11:52:50.697Z,8552
2016-09-23T11:53:50.644Z,6972
2016-09-23T11:54:50.683Z,6204
2016-09-23T11:55:50.658Z,6040
2016-09-23T11:56:50.662Z,5780
2016-09-23T11:57:50.684Z,5480
2016-09-23T11:58:50.613Z,5360
2016-09-23T11:59:50.613Z,5440
2016-09-23T12:00:50.623Z,5764
2016-09-23T12:01:50.603Z,5716
2016-09-23T12:02:50.628Z,5820
2016-09-23T12:03:50.609Z,6068
2016-09-23T12:04:50.629Z,5936
2016-09-23T12:05:50.620Z,6080
2016-09-23T12:06:50.616Z,5976
2016-09-23T12:07:50.650Z,5812
2016-09-23T12:08:50.713Z,5344
2016-09-23T12:09:50.674Z,5672
2016-09-23T12:10:50.612Z,6096
2016-09-23T12:11:50.647Z,6952
2016-09-23T12:12:50.614Z,7260
2016-09-23T12:13:50.701Z,6588
2016-09-23T12:14:50.682Z,6984
2016-09-23T12:15:50.641Z,7868
2016-09-23T12:16:50.659Z,8752
2016-09-23T12:17:50.648Z,8140
2016-09-23T12:18:50.690Z,7552
2016-09-23T12:19:50.652Z,7344
2016-09-23T12:20:50.634Z,7444
2016-09-23T12:21:50.658Z,7260
2016-09-23T12:22:50.675Z,7256
2016-09-23T12:23:50.714Z,7844
2016-09-23T12:24:50.729Z,8208
2016-09-23T12:25:50.753Z,8208
2016-09-23T12:26:50.685Z,8224
2016-09-23T12:27:50.693Z,9596
2016-09-23T12:28:50.687Z,9680
2016-09-23T12:29:50.631Z,9556
2016-09-23T12:30:50.762Z,9904
2016-09-23T12:31:50.729Z,10884
2016-09-23T12:32:50.795Z,11092
2016-09-23T12:33:50.717Z,11444
2016-09-23T12:34:51.323Z,10612
2016-09-23T12:35:50.675Z,10660
2016-09-23T12:36:50.726Z,11428
2016-09-23T12:37:50.688Z,11980
2016-09-23T12:38:50.697Z,12348
2016-09-23T12:39:50.643Z,11936
2016-09-23T12:40:50.639Z,10248
2016-09-23T12:41:50.672Z,8612
2016-09-23T12:42:50.672Z,8020
2016-09-23T12:43:50.686Z,7768
2016-09-23T12:44:51.220Z,7080
2016-09-23T12:45:50.703Z,6716
2016-09-23T12:46:50.694Z,6360
2016-09-23T12:47:50.669Z,6292
2016-09-23T12:48:50.657Z,6300
2016-09-23T12:49:50.640Z,7036
2016-09-23T12:50:50.706Z,7828
2016-09-23T12:51:50.688Z,8624
2016-09-23T12:52:50.711Z,10404
2016-09-23T12:53:50.739Z,11308
2016-09-23T12:54:50.682Z,11256
2016-09-23T12:55:50.646Z,11020
2016-09-23T12:56:51.880Z,10456
2016-09-23T12:57:50.718Z,9604
2016-09-23T12:58:50.724Z,9032
2016-09-23T12:59:50.727Z,8648
2016-09-23T13:00:50.692Z,8404
2016-09-23T13:01:50.698Z,8348
2016-09-23T13:02:51.232Z,8816
2016-09-23T13:03:50.725Z,9420
2016-09-23T13:04:50.712Z,10160
2016-09-23T13:05:50.715Z,10496
2016-09-23T13:06:50.722Z,10528
2016-09-23T13:07:51.416Z,9860
2016-09-23T13:08:50.747Z,9260
2016-09-23T13:09:50.692Z,9120
2016-09-23T13:10:50.733Z,9284
2016-09-23T13:11:50.772Z,9604
2016-09-23T13:12:50.744Z,9552
2016-09-23T13:13:50.759Z,8892
2016-09-23T13:14:50.712Z,8208
2016-09-23T13:15:50.693Z,7752
2016-09-23T13:16:50.709Z,7424
2016-09-23T13:17:50.714Z,7280
2016-09-23T13:18:50.727Z,7128
2016-09-23T13:19:50.678Z,7048
2016-09-23T13:20:50.692Z,7104
2016-09-23T13:21:50.726Z,7212
2016-09-23T13:22:50.709Z,7112
2016-09-23T13:23:50.718Z,6624
2016-09-23T13:24:50.729Z,5888
2016-09-23T13:25:50.752Z,5180
2016-09-23T13:26:50.774Z,5020
2016-09-23T13:27:50.695Z,5796
2016-09-23T13:28:50.722Z,6836
2016-09-23T13:29:50.768Z,7272
2016-09-23T13:30:50.701Z,7288
2016-09-23T13:31:50.753Z,7700
2016-09-23T13:32:50.704Z,8048
2016-09-23T13:33:50.764Z,7208
2016-09-23T13:34:50.746Z,6340
2016-09-23T13:35:50.708Z,6372
2016-09-23T13:36:50.753Z,7260
2016-09-23T13:37:50.729Z,8348
2016-09-23T13:38:50.733Z,8472
2016-09-23T13:39:50.761Z,8060
2016-09-23T13:40:50.696Z,7476
2016-09-23T13:41:50.716Z,7000
2016-09-23T13:42:50.723Z,6904
2016-09-23T13:43:50.760Z,7028
2016-09-23T13:44:50.758Z,7036
2016-09-23T13:45:50.769Z,6764
2016-09-23T13:46:50.714Z,6352